sensor_id;sensor_type;location;lat;lon;timestamp;temperature;humidity
12771;DHT22;6449;47.666;9.160;2023-03-25T00:04:58;7.90;99.90
12771;DHT22;6449;47.666;9.160;2023-03-25T00:09:54;7.80;99.90
12771;DHT22;6449;47.666;9.160;2023-03-25T00:14:49;7.60;99.90
12771;DHT22;6449;47.666;9.160;2023-03-25T00:19:46;7.60;99.90
12771;DHT22;6449;47.666;9.160;2023-03-25T00:24:43;7.50;99.90
12771;DHT22;6449;47.666;9.160;2023-03-25T00:29:37;7.40;99.90
12771;DHT22;6449;47.666;9.160;2023-03-25T00:34:31;7.40;99.90
12771;DHT22;6449;47.666;9.160;2023-03-25T00:39:26;7.30;99.90
12771;DHT22;6449;47.666;9.160;2023-03-25T00:44:19;7.30;99.90
12771;DHT22;6449;47.666;9.160;2023-03-25T00:49:13;7.40;99.90
12771;DHT22;6449;47.666;9.160;2023-03-25T00:54:08;7.30;99.90
12771;DHT22;6449;47.666;9.160;2023-03-25T00:59:02;7.40;99.90
12771;DHT22;6449;47.666;9.160;2023-03-25T01:03:56;7.40;99.90
12771;DHT22;6449;47.666;9.160;2023-03-25T01:08:51;7.50;99.90
12771;DHT22;6449;47.666;9.160;2023-03-25T01:13:47;7.50;99.90
12771;DHT22;6449;47.666;9.160;2023-03-25T01:18:40;7.50;99.90
12771;DHT22;6449;47.666;9.160;2023-03-25T01:23:34;7.60;99.90
12771;DHT22;6449;47.666;9.160;2023-03-25T01:28:27;7.50;99.90
12771;DHT22;6449;47.666;9.160;2023-03-25T01:33:22;7.40;99.90
12771;DHT22;6449;47.666;9.160;2023-03-25T01:38:16;7.30;99.90
12771;DHT22;6449;47.666;9.160;2023-03-25T01:43:10;7.20;99.90
12771;DHT22;6449;47.666;9.160;2023-03-25T01:48:08;7.10;99.90
12771;DHT22;6449;47.666;9.160;2023-03-25T01:53:08;7.10;99.90
12771;DHT22;6449;47.666;9.160;2023-03-25T01:58:05;7.10;99.90
12771;DHT22;6449;47.666;9.160;2023-03-25T02:03:03;7.00;99.90
12771;DHT22;6449;47.666;9.160;2023-03-25T02:07:57;6.90;99.90
12771;DHT22;6449;47.666;9.160;2023-03-25T02:12:53;7.00;99.90
12771;DHT22;6449;47.666;9.160;2023-03-25T02:18:01;7.00;99.90
12771;DHT22;6449;47.666;9.160;2023-03-25T02:23:32;6.90;99.90
12771;DHT22;6449;47.666;9.160;2023-03-25T02:28:53;6.90;99.90
12771;DHT22;6449;47.666;9.160;2023-03-25T02:39:35;7.00;99.90
12771;DHT22;6449;47.666;9.160;2023-03-25T02:44:36;6.90;99.90
12771;DHT22;6449;47.666;9.160;2023-03-25T02:49:36;6.90;99.90
12771;DHT22;6449;47.666;9.160;2023-03-25T02:54:35;7.10;99.90
12771;DHT22;6449;47.666;9.160;2023-03-25T02:59:32;7.10;99.90
12771;DHT22;6449;47.666;9.160;2023-03-25T03:04:29;7.00;99.90
12771;DHT22;6449;47.666;9.160;2023-03-25T03:09:34;7.20;99.90
12771;DHT22;6449;47.666;9.160;2023-03-25T03:14:49;7.20;99.90
12771;DHT22;6449;47.666;9.160;2023-03-25T03:19:57;7.30;99.90
12771;DHT22;6449;47.666;9.160;2023-03-25T03:25:05;7.20;99.90
12771;DHT22;6449;47.666;9.160;2023-03-25T03:30:08;7.10;99.90
12771;DHT22;6449;47.666;9.160;2023-03-25T03:35:08;7.10;99.90
12771;DHT22;6449;47.666;9.160;2023-03-25T03:40:13;7.10;99.90
12771;DHT22;6449;47.666;9.160;2023-03-25T03:45:14;6.90;99.90
12771;DHT22;6449;47.666;9.160;2023-03-25T03:50:14;6.40;99.90
12771;DHT22;6449;47.666;9.160;2023-03-25T03:55:15;6.10;99.90
12771;DHT22;6449;47.666;9.160;2023-03-25T04:00:16;5.90;99.90
12771;DHT22;6449;47.666;9.160;2023-03-25T04:05:16;6.00;99.90
12771;DHT22;6449;47.666;9.160;2023-03-25T04:10:19;6.10;99.90
12771;DHT22;6449;47.666;9.160;2023-03-25T04:15:20;6.10;99.90
12771;DHT22;6449;47.666;9.160;2023-03-25T04:20:15;6.00;99.90
12771;DHT22;6449;47.666;9.160;2023-03-25T04:25:17;5.90;99.90
12771;DHT22;6449;47.666;9.160;2023-03-25T04:30:12;6.00;99.90
12771;DHT22;6449;47.666;9.160;2023-03-25T04:45:21;5.90;99.90
12771;DHT22;6449;47.666;9.160;2023-03-25T04:50:19;5.80;99.90
12771;DHT22;6449;47.666;9.160;2023-03-25T05:10:33;5.80;99.90
12771;DHT22;6449;47.666;9.160;2023-03-25T05:15:30;5.80;99.90
12771;DHT22;6449;47.666;9.160;2023-03-25T05:20:26;5.80;99.90
12771;DHT22;6449;47.666;9.160;2023-03-25T05:25:20;5.90;99.90
12771;DHT22;6449;47.666;9.160;2023-03-25T06:52:06;6.60;99.90
12771;DHT22;6449;47.666;9.160;2023-03-25T06:56:59;6.70;99.90
12771;DHT22;6449;47.666;9.160;2023-03-25T07:01:53;6.90;99.90
12771;DHT22;6449;47.666;9.160;2023-03-25T07:13:31;6.80;99.90
12771;DHT22;6449;47.666;9.160;2023-03-25T07:18:25;7.10;99.90
12771;DHT22;6449;47.666;9.160;2023-03-25T07:23:19;7.20;99.90
12771;DHT22;6449;47.666;9.160;2023-03-25T07:28:13;7.40;99.90
12771;DHT22;6449;47.666;9.160;2023-03-25T07:43:22;7.80;99.90
12771;DHT22;6449;47.666;9.160;2023-03-25T07:48:16;7.90;99.90
12771;DHT22;6449;47.666;9.160;2023-03-25T07:53:09;8.20;99.90
12771;DHT22;6449;47.666;9.160;2023-03-25T08:13:15;8.40;99.90
12771;DHT22;6449;47.666;9.160;2023-03-25T08:18:09;8.30;99.90
12771;DHT22;6449;47.666;9.160;2023-03-25T08:23:02;8.20;99.90
12771;DHT22;6449;47.666;9.160;2023-03-25T08:28:01;8.20;99.90
12771;DHT22;6449;47.666;9.160;2023-03-25T08:32:58;8.20;99.90
12771;DHT22;6449;47.666;9.160;2023-03-25T08:37:52;8.00;99.90
12771;DHT22;6449;47.666;9.160;2023-03-25T08:42:45;8.00;99.90
12771;DHT22;6449;47.666;9.160;2023-03-25T08:47:39;8.10;99.90
12771;DHT22;6449;47.666;9.160;2023-03-25T08:52:38;8.00;99.90
12771;DHT22;6449;47.666;9.160;2023-03-25T09:02:28;7.50;99.90
12771;DHT22;6449;47.666;9.160;2023-03-25T09:07:22;7.20;99.90
12771;DHT22;6449;47.666;9.160;2023-03-25T09:12:18;7.00;99.90
12771;DHT22;6449;47.666;9.160;2023-03-25T09:17:12;7.00;99.90
12771;DHT22;6449;47.666;9.160;2023-03-25T09:22:06;7.30;99.90
12771;DHT22;6449;47.666;9.160;2023-03-25T09:32:08;7.80;99.90
12771;DHT22;6449;47.666;9.160;2023-03-25T09:37:03;8.10;99.90
12771;DHT22;6449;47.666;9.160;2023-03-25T09:42:07;8.20;99.90
12771;DHT22;6449;47.666;9.160;2023-03-25T09:47:19;8.10;99.90
12771;DHT22;6449;47.666;9.160;2023-03-25T10:38:23;7.40;99.90
12771;DHT22;6449;47.666;9.160;2023-03-25T10:48:27;7.10;99.90
12771;DHT22;6449;47.666;9.160;2023-03-25T10:53:23;7.00;99.90
12771;DHT22;6449;47.666;9.160;2023-03-25T10:58:19;6.80;99.90
12771;DHT22;6449;47.666;9.160;2023-03-25T11:03:21;6.80;99.90
12771;DHT22;6449;47.666;9.160;2023-03-25T11:08:20;6.80;99.90
12771;DHT22;6449;47.666;9.160;2023-03-25T11:13:16;6.70;99.90
12771;DHT22;6449;47.666;9.160;2023-03-25T11:18:19;6.70;99.90
12771;DHT22;6449;47.666;9.160;2023-03-25T11:23:23;6.70;99.90
12771;DHT22;6449;47.666;9.160;2023-03-25T11:28:23;6.60;99.90
12771;DHT22;6449;47.666;9.160;2023-03-25T11:33:28;6.70;99.90
12771;DHT22;6449;47.666;9.160;2023-03-25T11:38:28;6.90;99.90
12771;DHT22;6449;47.666;9.160;2023-03-25T11:43:24;7.10;99.90
12771;DHT22;6449;47.666;9.160;2023-03-25T11:48:23;7.30;99.90
12771;DHT22;6449;47.666;9.160;2023-03-25T11:53:26;7.60;99.90
12771;DHT22;6449;47.666;9.160;2023-03-25T11:58:27;7.80;99.90
12771;DHT22;6449;47.666;9.160;2023-03-25T12:03:26;8.00;99.90
12771;DHT22;6449;47.666;9.160;2023-03-25T12:08:20;8.10;99.90
12771;DHT22;6449;47.666;9.160;2023-03-25T12:13:23;8.40;99.90
12771;DHT22;6449;47.666;9.160;2023-03-25T12:18:40;8.50;99.90
12771;DHT22;6449;47.666;9.160;2023-03-25T12:23:53;8.70;99.90
12771;DHT22;6449;47.666;9.160;2023-03-25T12:29:15;8.90;99.90
12771;DHT22;6449;47.666;9.160;2023-03-25T12:34:26;9.00;99.90
12771;DHT22;6449;47.666;9.160;2023-03-25T12:39:41;9.20;99.90
12771;DHT22;6449;47.666;9.160;2023-03-25T12:44:55;9.30;99.90
12771;DHT22;6449;47.666;9.160;2023-03-25T12:50:36;9.40;99.90
12771;DHT22;6449;47.666;9.160;2023-03-25T12:55:50;9.60;99.90
12771;DHT22;6449;47.666;9.160;2023-03-25T13:01:05;9.70;99.90
12771;DHT22;6449;47.666;9.160;2023-03-25T13:06:14;9.80;99.90
12771;DHT22;6449;47.666;9.160;2023-03-25T13:11:19;10.00;99.90
12771;DHT22;6449;47.666;9.160;2023-03-25T13:16:19;10.20;99.90
12771;DHT22;6449;47.666;9.160;2023-03-25T13:21:19;10.10;99.90
12771;DHT22;6449;47.666;9.160;2023-03-25T13:26:20;10.00;99.90
12771;DHT22;6449;47.666;9.160;2023-03-25T13:36:29;9.80;99.90
12771;DHT22;6449;47.666;9.160;2023-03-25T13:41:33;9.80;99.90
12771;DHT22;6449;47.666;9.160;2023-03-25T13:46:35;9.80;99.90
12771;DHT22;6449;47.666;9.160;2023-03-25T13:51:34;9.60;99.90
12771;DHT22;6449;47.666;9.160;2023-03-25T13:56:58;9.60;99.90
12771;DHT22;6449;47.666;9.160;2023-03-25T14:02:27;9.50;99.90
12771;DHT22;6449;47.666;9.160;2023-03-25T14:08:09;9.60;99.90
12771;DHT22;6449;47.666;9.160;2023-03-25T14:13:52;9.50;99.90
12771;DHT22;6449;47.666;9.160;2023-03-25T14:18:54;9.50;99.90
12771;DHT22;6449;47.666;9.160;2023-03-25T14:24:02;9.60;99.90
12771;DHT22;6449;47.666;9.160;2023-03-25T14:29:04;9.60;99.90
12771;DHT22;6449;47.666;9.160;2023-03-25T14:34:25;9.60;99.90
12771;DHT22;6449;47.666;9.160;2023-03-25T14:39:38;9.60;99.90
12771;DHT22;6449;47.666;9.160;2023-03-25T14:44:34;9.80;99.90
12771;DHT22;6449;47.666;9.160;2023-03-25T14:49:47;9.80;99.90
12771;DHT22;6449;47.666;9.160;2023-03-25T14:54:50;9.70;99.90
12771;DHT22;6449;47.666;9.160;2023-03-25T14:59:48;9.60;99.90
12771;DHT22;6449;47.666;9.160;2023-03-25T15:04:51;9.60;99.90
12771;DHT22;6449;47.666;9.160;2023-03-25T15:09:51;9.50;99.90
12771;DHT22;6449;47.666;9.160;2023-03-25T15:14:49;9.50;99.90
12771;DHT22;6449;47.666;9.160;2023-03-25T15:20:26;9.40;99.90
12771;DHT22;6449;47.666;9.160;2023-03-25T15:35:36;8.40;99.90
12771;DHT22;6449;47.666;9.160;2023-03-25T15:40:49;8.40;99.90
12771;DHT22;6449;47.666;9.160;2023-03-25T15:46:19;8.50;99.90
12771;DHT22;6449;47.666;9.160;2023-03-25T15:56:32;8.50;99.90
12771;DHT22;6449;47.666;9.160;2023-03-25T16:01:33;8.50;99.90
12771;DHT22;6449;47.666;9.160;2023-03-25T16:06:31;8.50;99.90
12771;DHT22;6449;47.666;9.160;2023-03-25T16:11:33;8.50;99.90
12771;DHT22;6449;47.666;9.160;2023-03-25T16:16:29;8.50;99.90
12771;DHT22;6449;47.666;9.160;2023-03-25T16:21:27;8.50;99.90
12771;DHT22;6449;47.666;9.160;2023-03-25T16:26:35;8.40;99.90
12771;DHT22;6449;47.666;9.160;2023-03-25T16:31:32;8.10;99.90
12771;DHT22;6449;47.666;9.160;2023-03-25T16:36:32;8.00;99.90
12771;DHT22;6449;47.666;9.160;2023-03-25T16:41:26;7.90;99.90
12771;DHT22;6449;47.666;9.160;2023-03-25T16:46:21;7.80;99.90
12771;DHT22;6449;47.666;9.160;2023-03-25T16:51:17;8.00;99.90
12771;DHT22;6449;47.666;9.160;2023-03-25T16:56:22;8.00;99.90
12771;DHT22;6449;47.666;9.160;2023-03-25T17:01:22;8.00;99.90
12771;DHT22;6449;47.666;9.160;2023-03-25T17:06:20;7.90;99.90
12771;DHT22;6449;47.666;9.160;2023-03-25T17:11:19;7.90;99.90
12771;DHT22;6449;47.666;9.160;2023-03-25T17:16:14;8.00;99.90
12771;DHT22;6449;47.666;9.160;2023-03-25T17:21:11;8.00;99.90
12771;DHT22;6449;47.666;9.160;2023-03-25T17:26:16;7.90;99.90
12771;DHT22;6449;47.666;9.160;2023-03-25T17:31:24;7.90;99.90
12771;DHT22;6449;47.666;9.160;2023-03-25T17:36:22;8.00;99.90
12771;DHT22;6449;47.666;9.160;2023-03-25T17:41:17;7.90;99.90
12771;DHT22;6449;47.666;9.160;2023-03-25T17:46:14;7.80;99.90
12771;DHT22;6449;47.666;9.160;2023-03-25T17:51:12;7.80;99.90
12771;DHT22;6449;47.666;9.160;2023-03-25T17:56:10;7.90;99.90
12771;DHT22;6449;47.666;9.160;2023-03-25T18:01:08;7.90;99.90
12771;DHT22;6449;47.666;9.160;2023-03-25T18:06:04;7.80;99.90
12771;DHT22;6449;47.666;9.160;2023-03-25T18:10:58;7.70;99.90
12771;DHT22;6449;47.666;9.160;2023-03-25T18:15:53;7.50;99.90
12771;DHT22;6449;47.666;9.160;2023-03-25T18:20:50;7.40;99.90
12771;DHT22;6449;47.666;9.160;2023-03-25T18:25:44;7.30;99.90
12771;DHT22;6449;47.666;9.160;2023-03-25T18:30:43;7.10;99.90
12771;DHT22;6449;47.666;9.160;2023-03-25T18:35:39;7.10;99.90
12771;DHT22;6449;47.666;9.160;2023-03-25T18:40:33;7.10;99.90
12771;DHT22;6449;47.666;9.160;2023-03-25T18:45:28;7.00;99.90
12771;DHT22;6449;47.666;9.160;2023-03-25T18:50:26;7.00;99.90
12771;DHT22;6449;47.666;9.160;2023-03-25T18:55:25;7.00;99.90
12771;DHT22;6449;47.666;9.160;2023-03-25T19:00:22;7.10;99.90
12771;DHT22;6449;47.666;9.160;2023-03-25T19:05:16;7.10;99.90
12771;DHT22;6449;47.666;9.160;2023-03-25T19:10:16;7.10;99.90
12771;DHT22;6449;47.666;9.160;2023-03-25T19:15:15;7.00;99.90
12771;DHT22;6449;47.666;9.160;2023-03-25T19:20:13;6.90;99.90
12771;DHT22;6449;47.666;9.160;2023-03-25T19:25:09;6.80;99.90
12771;DHT22;6449;47.666;9.160;2023-03-25T19:30:04;6.80;99.90
12771;DHT22;6449;47.666;9.160;2023-03-25T19:35:01;6.70;99.90
12771;DHT22;6449;47.666;9.160;2023-03-25T19:39:54;6.70;99.90
12771;DHT22;6449;47.666;9.160;2023-03-25T19:44:48;6.70;99.90
12771;DHT22;6449;47.666;9.160;2023-03-25T19:49:42;6.70;99.90
12771;DHT22;6449;47.666;9.160;2023-03-25T19:54:38;6.70;99.90
12771;DHT22;6449;47.666;9.160;2023-03-25T19:59:31;6.70;99.90
12771;DHT22;6449;47.666;9.160;2023-03-25T20:04:25;6.70;99.90
12771;DHT22;6449;47.666;9.160;2023-03-25T20:09:18;6.60;99.90
12771;DHT22;6449;47.666;9.160;2023-03-25T20:14:13;6.60;99.90
12771;DHT22;6449;47.666;9.160;2023-03-25T20:19:07;6.70;99.90
12771;DHT22;6449;47.666;9.160;2023-03-25T20:24:00;6.90;99.90
12771;DHT22;6449;47.666;9.160;2023-03-25T20:28:54;6.90;99.90
12771;DHT22;6449;47.666;9.160;2023-03-25T20:33:49;7.00;99.90
12771;DHT22;6449;47.666;9.160;2023-03-25T20:38:43;7.00;99.90
12771;DHT22;6449;47.666;9.160;2023-03-25T20:43:48;7.00;99.90
12771;DHT22;6449;47.666;9.160;2023-03-25T20:48:41;6.90;99.90
12771;DHT22;6449;47.666;9.160;2023-03-25T20:53:36;7.00;99.90
12771;DHT22;6449;47.666;9.160;2023-03-25T20:58:31;7.00;99.90
12771;DHT22;6449;47.666;9.160;2023-03-25T21:03:24;6.90;99.90
12771;DHT22;6449;47.666;9.160;2023-03-25T21:08:18;6.70;99.90
12771;DHT22;6449;47.666;9.160;2023-03-25T21:13:14;6.60;99.90
12771;DHT22;6449;47.666;9.160;2023-03-25T21:18:08;6.50;99.90
12771;DHT22;6449;47.666;9.160;2023-03-25T21:23:23;6.40;99.90
12771;DHT22;6449;47.666;9.160;2023-03-25T21:28:20;6.40;99.90
12771;DHT22;6449;47.666;9.160;2023-03-25T21:33:14;6.40;99.90
12771;DHT22;6449;47.666;9.160;2023-03-25T21:38:07;6.40;99.90
12771;DHT22;6449;47.666;9.160;2023-03-25T21:43:01;6.40;99.90
12771;DHT22;6449;47.666;9.160;2023-03-25T21:47:55;6.60;99.90
12771;DHT22;6449;47.666;9.160;2023-03-25T21:52:49;6.80;99.90
12771;DHT22;6449;47.666;9.160;2023-03-25T21:57:43;6.70;99.90
12771;DHT22;6449;47.666;9.160;2023-03-25T22:02:38;6.70;99.90
12771;DHT22;6449;47.666;9.160;2023-03-25T22:07:35;6.70;99.90
12771;DHT22;6449;47.666;9.160;2023-03-25T22:12:29;6.70;99.90
12771;DHT22;6449;47.666;9.160;2023-03-25T22:17:23;6.60;99.90
12771;DHT22;6449;47.666;9.160;2023-03-25T22:22:16;6.60;99.90
12771;DHT22;6449;47.666;9.160;2023-03-25T22:27:13;6.60;99.90
12771;DHT22;6449;47.666;9.160;2023-03-25T22:32:07;6.60;99.90
12771;DHT22;6449;47.666;9.160;2023-03-25T22:37:01;6.50;99.90
12771;DHT22;6449;47.666;9.160;2023-03-25T22:41:59;6.60;99.90
12771;DHT22;6449;47.666;9.160;2023-03-25T22:46:57;6.60;99.90
12771;DHT22;6449;47.666;9.160;2023-03-25T22:51:54;6.60;99.90
12771;DHT22;6449;47.666;9.160;2023-03-25T22:56:47;6.60;99.90
12771;DHT22;6449;47.666;9.160;2023-03-25T23:01:44;6.60;99.90
12771;DHT22;6449;47.666;9.160;2023-03-25T23:06:43;6.70;99.90
12771;DHT22;6449;47.666;9.160;2023-03-25T23:11:51;6.80;99.90
12771;DHT22;6449;47.666;9.160;2023-03-25T23:16:44;6.80;99.90
12771;DHT22;6449;47.666;9.160;2023-03-25T23:21:38;6.80;99.90
12771;DHT22;6449;47.666;9.160;2023-03-25T23:26:34;6.80;99.90
12771;DHT22;6449;47.666;9.160;2023-03-25T23:31:31;6.70;99.90
12771;DHT22;6449;47.666;9.160;2023-03-25T23:36:28;6.70;99.90
12771;DHT22;6449;47.666;9.160;2023-03-25T23:41:24;6.70;99.90
12771;DHT22;6449;47.666;9.160;2023-03-25T23:46:22;6.60;99.90
12771;DHT22;6449;47.666;9.160;2023-03-25T23:51:18;6.60;99.90
12771;DHT22;6449;47.666;9.160;2023-03-25T23:56:14;6.60;99.90
